createdAt,value
2023-05-06T00:02:06.125Z,4.63
2023-05-06T00:05:08.399Z,4.90
2023-05-06T00:08:09.926Z,5.13
2023-05-06T00:11:13.035Z,4.80
2023-05-06T00:14:14.290Z,5.05
2023-05-06T00:17:15.908Z,4.85
2023-05-06T00:20:17.232Z,4.95
2023-05-06T00:23:18.617Z,4.90
2023-05-06T00:26:20.690Z,5.40
2023-05-06T00:29:22.003Z,4.53
2023-05-06T00:32:23.518Z,4.75
2023-05-06T00:35:24.850Z,5.18
2023-05-06T00:38:26.244Z,5.73
2023-05-06T00:41:31.660Z,5.10
2023-05-06T00:44:33.124Z,5.40
2023-05-06T00:47:34.566Z,5.45
2023-05-06T00:50:36.423Z,5.70
2023-05-06T00:53:39.161Z,5.47
2023-05-06T00:56:41.630Z,5.23
2023-05-06T00:59:43.839Z,5.28
2023-05-06T01:02:47.851Z,5.43
2023-05-06T01:05:57.770Z,4.90
2023-05-06T01:09:07.361Z,5.20
2023-05-06T01:12:21.271Z,5.20
2023-05-06T01:15:28.764Z,5.43
2023-05-06T01:18:32.340Z,5.60
2023-05-06T01:21:35.287Z,4.80
2023-05-06T01:24:38.672Z,5.50
2023-05-06T01:27:40.061Z,5.80
2023-05-06T01:30:49.696Z,5.15
2023-05-06T01:33:59.250Z,5.53
2023-05-06T01:37:10.212Z,5.10
2023-05-06T01:40:14.094Z,5.57
2023-05-06T01:43:18.262Z,5.97
2023-05-06T01:46:21.327Z,5.43
2023-05-06T01:49:25.412Z,4.97
2023-05-06T01:52:26.994Z,4.93
2023-05-06T01:55:29.136Z,5.20
2023-05-06T01:58:30.553Z,5.13
2023-05-06T02:01:31.974Z,5.10
2023-05-06T02:04:33.461Z,5.05
2023-05-06T02:07:34.930Z,5.15
2023-05-06T02:10:37.014Z,4.67
2023-05-06T02:13:38.465Z,5.20
2023-05-06T02:16:39.951Z,5.18
2023-05-06T02:19:41.374Z,4.85
2023-05-06T02:22:42.783Z,5.20
2023-05-06T02:25:44.902Z,5.00
2023-05-06T02:28:46.181Z,5.07
2023-05-06T02:31:47.534Z,4.72
2023-05-06T02:34:48.816Z,5.30
2023-05-06T02:37:50.123Z,5.05
2023-05-06T02:40:52.130Z,5.33
2023-05-06T02:43:53.566Z,4.80
2023-05-06T02:46:55.006Z,4.70
2023-05-06T02:49:56.544Z,5.25
2023-05-06T02:52:57.969Z,4.88
2023-05-06T02:55:59.960Z,4.90
2023-05-06T02:59:01.396Z,5.10
2023-05-06T03:02:02.737Z,5.10
2023-05-06T03:05:04.620Z,4.60
2023-05-06T03:08:06.238Z,4.40
2023-05-06T03:11:08.441Z,4.43
2023-05-06T03:14:09.940Z,4.78
2023-05-06T03:17:11.253Z,4.68
2023-05-06T03:20:12.996Z,4.30
2023-05-06T03:23:14.876Z,4.80
2023-05-06T03:26:16.989Z,5.43
2023-05-06T03:29:18.275Z,4.75
2023-05-06T03:32:20.273Z,5.40
2023-05-06T03:35:21.579Z,4.97
2023-05-06T03:38:22.936Z,4.97
2023-05-06T03:41:25.092Z,5.00
2023-05-06T03:44:26.400Z,4.80
2023-05-06T03:47:27.871Z,5.15
2023-05-06T03:50:29.143Z,4.90
2023-05-06T03:53:30.608Z,4.77
2023-05-06T03:56:32.554Z,4.95
2023-05-06T03:59:33.988Z,4.90
2023-05-06T04:02:35.475Z,4.47
2023-05-06T04:05:37.031Z,4.80
2023-05-06T04:08:38.444Z,5.00
2023-05-06T04:11:40.845Z,5.22
2023-05-06T04:14:42.142Z,4.63
2023-05-06T04:17:43.580Z,4.45
2023-05-06T04:20:46.579Z,5.10
2023-05-06T04:23:48.160Z,4.73
2023-05-06T04:26:50.665Z,4.72
2023-05-06T04:29:52.065Z,5.20
2023-05-06T04:32:53.381Z,5.10
2023-05-06T04:35:55.872Z,5.13
2023-05-06T04:38:57.544Z,5.63
2023-05-06T04:41:59.608Z,5.82
2023-05-06T04:45:01.343Z,4.80
2023-05-06T04:48:02.799Z,5.13
2023-05-06T04:51:04.925Z,5.30
2023-05-06T04:54:06.197Z,4.93
2023-05-06T04:57:08.311Z,4.90
2023-05-06T05:00:10.313Z,5.13
2023-05-06T05:03:12.129Z,5.20
2023-05-06T05:06:13.553Z,5.00
2023-05-06T05:09:14.916Z,5.18
2023-05-06T05:12:16.998Z,4.93
2023-05-06T05:15:19.633Z,4.23
2023-05-06T05:18:21.058Z,5.20
2023-05-06T05:21:22.388Z,5.43
2023-05-06T05:24:23.823Z,5.07
2023-05-06T05:27:25.728Z,5.57
2023-05-06T05:30:27.112Z,5.00
2023-05-06T05:33:28.460Z,5.30
2023-05-06T05:36:29.861Z,4.72
2023-05-06T05:39:31.155Z,5.40
2023-05-06T05:42:33.384Z,4.73
2023-05-06T05:45:35.002Z,4.50
2023-05-06T05:48:38.900Z,4.88
2023-05-06T05:51:40.303Z,4.78
2023-05-06T05:54:41.644Z,4.47
2023-05-06T05:57:43.731Z,4.90
2023-05-06T06:00:45.039Z,5.20
2023-05-06T06:03:47.178Z,5.35
2023-05-06T06:06:48.643Z,5.03
2023-05-06T06:09:49.889Z,5.35
2023-05-06T06:12:52.096Z,5.07
2023-05-06T06:15:53.578Z,5.30
2023-05-06T06:18:55.035Z,5.53
2023-05-06T06:21:56.763Z,5.32
2023-05-06T06:24:58.047Z,4.85
2023-05-06T06:27:59.998Z,6.03
2023-05-06T06:31:01.462Z,5.50
2023-05-06T06:34:05.607Z,5.80
2023-05-06T06:37:09.129Z,5.70
2023-05-06T06:40:11.726Z,5.60
2023-05-06T06:43:13.645Z,6.23
2023-05-06T06:46:15.164Z,6.10
2023-05-06T06:49:16.509Z,5.63
2023-05-06T06:52:17.900Z,5.65
2023-05-06T06:55:19.774Z,6.30
2023-05-06T06:58:21.736Z,6.20
2023-05-06T07:01:23.212Z,5.73
2023-05-06T07:04:24.978Z,6.20
2023-05-06T07:07:26.480Z,5.72
2023-05-06T07:10:27.732Z,5.85
2023-05-06T07:13:29.842Z,5.43
2023-05-06T07:16:31.126Z,5.77
2023-05-06T07:19:32.452Z,6.05
2023-05-06T07:22:33.957Z,5.55
2023-05-06T07:25:35.441Z,6.25
2023-05-06T07:28:37.384Z,6.07
2023-05-06T07:31:38.876Z,5.67
2023-05-06T07:34:40.216Z,5.72
2023-05-06T07:37:41.582Z,6.20
2023-05-06T07:40:42.839Z,5.72
2023-05-06T07:43:45.016Z,6.60
2023-05-06T07:46:46.393Z,6.37
2023-05-06T07:49:47.851Z,5.90
2023-05-06T07:52:49.109Z,6.35
2023-05-06T07:55:51.875Z,6.55
2023-05-06T07:58:53.833Z,7.07
2023-05-06T08:01:55.247Z,15.30
2023-05-06T08:04:56.611Z,8.40
2023-05-06T08:07:58.148Z,6.88
2023-05-06T08:11:00.310Z,18.17
2023-05-06T08:14:02.532Z,9.80
2023-05-06T08:17:04.043Z,10.60
2023-05-06T08:20:06.587Z,7.63
2023-05-06T08:23:08.212Z,7.72
2023-05-06T08:26:09.509Z,7.32
2023-05-06T08:29:11.656Z,7.07
2023-05-06T08:32:13.042Z,7.80
2023-05-06T08:35:14.421Z,9.43
2023-05-06T08:38:15.836Z,14.45
2023-05-06T08:41:18.959Z,9.85
2023-05-06T08:44:24.201Z,10.33
2023-05-06T08:47:25.842Z,7.33
2023-05-06T08:50:27.385Z,7.07
2023-05-06T08:53:29.260Z,8.02
2023-05-06T08:56:33.266Z,11.70
2023-05-06T08:59:35.801Z,7.93
2023-05-06T09:02:38.383Z,7.90
2023-05-06T09:05:41.359Z,8.27
2023-05-06T09:08:42.699Z,9.30
2023-05-06T09:11:44.093Z,9.05
2023-05-06T09:14:49.539Z,9.65
2023-05-06T09:17:51.120Z,17.10
2023-05-06T09:20:52.591Z,18.53
2023-05-06T09:23:53.932Z,9.02
2023-05-06T09:26:56.324Z,8.02
2023-05-06T09:30:02.658Z,13.95
2023-05-06T09:33:04.558Z,7.77
2023-05-06T09:36:06.861Z,7.50
2023-05-06T09:39:09.520Z,14.10
2023-05-06T09:42:11.117Z,22.83
2023-05-06T09:45:15.713Z,19.95
2023-05-06T09:48:17.112Z,9.83
2023-05-06T09:51:18.817Z,7.60
2023-05-06T09:54:20.825Z,11.68
2023-05-06T09:57:22.674Z,10.15
2023-05-06T10:00:28.438Z,10.82
2023-05-06T10:03:30.914Z,14.90
2023-05-06T10:06:34.940Z,11.97
2023-05-06T10:09:37.431Z,8.10
2023-05-06T10:12:39.387Z,8.25
2023-05-06T10:15:42.620Z,7.25
2023-05-06T10:18:45.494Z,8.27
2023-05-06T10:21:57.260Z,6.80
2023-05-06T10:25:03.318Z,8.00
2023-05-06T10:28:07.582Z,9.00
2023-05-06T10:31:13.295Z,8.73
2023-05-06T10:34:19.063Z,8.93
2023-05-06T10:37:25.216Z,8.50
2023-05-06T10:40:26.569Z,8.85
2023-05-06T10:43:30.288Z,8.18
2023-05-06T10:46:32.419Z,20.67
2023-05-06T10:49:33.905Z,10.93
2023-05-06T10:52:43.773Z,10.03
2023-05-06T10:55:45.223Z,8.13
2023-05-06T10:58:47.744Z,10.23
2023-05-06T11:01:55.613Z,14.55
2023-05-06T11:05:00.635Z,11.43
2023-05-06T11:08:09.724Z,32.53
2023-05-06T11:11:44.996Z,9.32
2023-05-06T11:14:46.371Z,7.40
2023-05-06T11:17:48.540Z,7.85
2023-05-06T11:20:50.695Z,6.87
2023-05-06T11:24:08.975Z,7.93
2023-05-06T11:27:11.931Z,6.15
2023-05-06T11:30:14.492Z,7.35
2023-05-06T11:33:18.892Z,6.55
2023-05-06T11:36:21.080Z,6.97
2023-05-06T11:39:22.588Z,7.00
2023-05-06T11:42:25.624Z,6.80
2023-05-06T11:45:39.888Z,6.55
2023-05-06T11:48:42.963Z,6.57
2023-05-06T11:51:44.370Z,6.47
2023-05-06T11:54:45.701Z,6.23
2023-05-06T11:57:47.412Z,6.90
2023-05-06T12:00:51.303Z,5.97
2023-05-06T12:03:54.761Z,17.25
2023-05-06T12:06:56.327Z,5.80
2023-05-06T12:09:58.460Z,5.00
2023-05-06T12:13:00.091Z,7.75
2023-05-06T12:16:02.378Z,10.80
2023-05-06T12:19:05.381Z,6.47
2023-05-06T12:22:19.984Z,22.30
2023-05-06T12:25:21.241Z,8.77
2023-05-06T12:28:23.064Z,5.47
2023-05-06T12:31:25.500Z,9.50
2023-05-06T12:34:36.669Z,24.92
2023-05-06T12:37:39.085Z,5.00
2023-05-06T12:40:41.432Z,4.20
2023-05-06T12:43:42.888Z,4.10
2023-05-06T12:46:51.275Z,4.60
2023-05-06T12:49:54.366Z,5.07
2023-05-06T12:52:55.769Z,4.80
2023-05-06T12:55:57.320Z,4.57
2023-05-06T12:59:00.192Z,5.03
2023-05-06T13:02:01.781Z,4.82
2023-05-06T13:05:04.986Z,19.70
2023-05-06T13:08:06.265Z,5.70
2023-05-06T13:11:07.563Z,5.20
2023-05-06T13:14:09.733Z,5.35
2023-05-06T13:17:11.309Z,6.10
2023-05-06T13:20:13.962Z,11.52
2023-05-06T13:23:15.633Z,6.37
2023-05-06T13:26:17.998Z,5.50
2023-05-06T13:29:19.330Z,9.90
2023-05-06T13:32:20.752Z,6.25
2023-05-06T13:35:22.817Z,5.63
2023-05-06T13:38:24.249Z,5.30
2023-05-06T13:41:25.811Z,5.55
2023-05-06T13:44:27.175Z,4.95
2023-05-06T13:47:28.618Z,6.03
2023-05-06T13:50:30.684Z,5.80
2023-05-06T13:53:34.326Z,4.90
2023-05-06T13:56:35.859Z,4.55
2023-05-06T13:59:37.387Z,4.53
2023-05-06T14:02:39.196Z,5.13
2023-05-06T14:05:41.352Z,5.00
2023-05-06T14:08:42.852Z,5.68
2023-05-06T14:11:44.128Z,5.50
2023-05-06T14:14:45.556Z,4.90
2023-05-06T14:17:46.885Z,5.05
2023-05-06T14:20:49.126Z,5.30
2023-05-06T14:23:50.401Z,4.80
2023-05-06T14:26:53.056Z,4.53
2023-05-06T14:29:54.608Z,4.80
2023-05-06T14:32:55.947Z,4.68
2023-05-06T14:35:58.027Z,4.90
2023-05-06T14:38:59.311Z,5.03
2023-05-06T14:42:00.840Z,5.18
2023-05-06T14:45:02.172Z,4.78
2023-05-06T14:48:04.403Z,4.35
2023-05-06T14:51:06.531Z,4.30
2023-05-06T14:54:07.798Z,3.88
2023-05-06T14:57:09.135Z,3.88
2023-05-06T15:00:13.908Z,3.80
2023-05-06T15:03:15.300Z,4.28
2023-05-06T15:06:17.213Z,3.50
2023-05-06T15:09:18.620Z,3.65
2023-05-06T15:12:20.726Z,3.65
2023-05-06T15:15:22.130Z,3.67
2023-05-06T15:18:23.491Z,3.40
2023-05-06T15:21:26.777Z,3.50
2023-05-06T15:24:28.026Z,3.30
2023-05-06T15:27:30.118Z,3.50
2023-05-06T15:30:31.726Z,3.78
2023-05-06T15:33:32.970Z,3.00
2023-05-06T15:36:35.171Z,3.17
2023-05-06T15:39:37.096Z,2.85
2023-05-06T15:42:39.064Z,3.13
2023-05-06T15:45:40.394Z,3.40
2023-05-06T15:48:41.933Z,3.63
2023-05-06T15:51:43.906Z,3.33
2023-05-06T15:54:49.596Z,3.40
2023-05-06T15:57:52.891Z,3.00
2023-05-06T16:00:54.155Z,2.92
2023-05-06T16:03:55.615Z,3.08
2023-05-06T16:06:57.680Z,2.90
2023-05-06T16:09:59.126Z,3.40
2023-05-06T16:13:00.501Z,2.97
2023-05-06T16:16:01.989Z,3.17
2023-05-06T16:19:03.377Z,3.35
2023-05-06T16:22:05.468Z,2.90
2023-05-06T16:25:07.345Z,2.67
2023-05-06T16:28:08.858Z,2.77
2023-05-06T16:31:10.222Z,2.70
2023-05-06T16:34:11.546Z,3.42
2023-05-06T16:37:14.662Z,3.08
2023-05-06T16:40:18.492Z,3.30
2023-05-06T16:43:19.880Z,3.40
2023-05-06T16:46:23.948Z,3.67
2023-05-06T16:49:27.301Z,4.30
2023-05-06T16:52:30.781Z,4.57
2023-05-06T16:55:32.447Z,4.47
2023-05-06T16:58:33.758Z,4.13
2023-05-06T17:01:35.205Z,4.00
2023-05-06T17:04:36.766Z,3.60
2023-05-06T17:07:39.100Z,3.47
2023-05-06T17:10:40.446Z,3.77
2023-05-06T17:13:41.940Z,4.03
2023-05-06T17:16:43.326Z,3.92
2023-05-06T17:19:44.786Z,3.72
2023-05-06T17:22:46.877Z,3.88
2023-05-06T17:25:48.212Z,3.70
2023-05-06T17:28:50.353Z,3.90
2023-05-06T17:31:51.616Z,4.68
2023-05-06T17:34:53.055Z,4.40
2023-05-06T17:37:55.297Z,4.28
2023-05-06T17:40:56.741Z,4.80
2023-05-06T17:43:58.244Z,4.73
2023-05-06T17:46:59.868Z,4.60
2023-05-06T17:50:01.287Z,5.07
2023-05-06T17:53:03.239Z,4.75
2023-05-06T17:56:05.110Z,4.83
2023-05-06T17:59:06.752Z,5.30
2023-05-06T18:02:09.259Z,5.18
2023-05-06T18:05:10.932Z,4.73
2023-05-06T18:08:13.334Z,5.53
2023-05-06T18:11:15.066Z,5.82
2023-05-06T18:14:16.516Z,5.13
2023-05-06T18:17:18.048Z,5.60
2023-05-06T18:20:19.310Z,5.87
2023-05-06T18:23:21.405Z,5.28
2023-05-06T18:26:42.679Z,6.50
2023-05-06T18:29:44.213Z,5.53
2023-05-06T18:32:45.632Z,5.50
2023-05-06T18:35:47.061Z,6.20
2023-05-06T18:38:49.031Z,4.97
2023-05-06T18:41:50.314Z,6.10
2023-05-06T18:44:51.774Z,5.90
2023-05-06T18:47:53.309Z,7.05
2023-05-06T18:50:54.785Z,6.50
2023-05-06T18:53:56.881Z,6.65
2023-05-06T18:56:58.360Z,6.43
2023-05-06T18:59:59.847Z,6.28
2023-05-06T19:03:01.252Z,7.07
2023-05-06T19:06:04.583Z,6.50
2023-05-06T19:09:06.801Z,6.85
2023-05-06T19:12:08.131Z,6.75
2023-05-06T19:15:11.751Z,7.18
2023-05-06T19:18:13.287Z,7.13
2023-05-06T19:21:15.049Z,6.87
2023-05-06T19:24:17.061Z,7.93
2023-05-06T19:27:18.382Z,7.60
2023-05-06T19:30:19.978Z,8.35
2023-05-06T19:33:21.401Z,8.25
2023-05-06T19:36:22.795Z,7.17
2023-05-06T19:39:24.783Z,7.60
2023-05-06T19:42:26.181Z,8.48
2023-05-06T19:45:27.491Z,8.48
2023-05-06T19:48:29.716Z,7.65
2023-05-06T19:51:31.592Z,8.77
2023-05-06T19:54:33.550Z,8.65
2023-05-06T19:57:36.194Z,8.45
2023-05-06T20:00:37.814Z,8.07
2023-05-06T20:03:39.411Z,8.98
2023-05-06T20:06:41.017Z,9.17
2023-05-06T20:09:43.308Z,9.60
2023-05-06T20:12:44.760Z,9.13
2023-05-06T20:15:46.788Z,9.48
2023-05-06T20:18:49.918Z,9.38
2023-05-06T20:21:51.736Z,10.10
2023-05-06T20:25:07.163Z,10.40
2023-05-06T20:28:08.658Z,9.20
2023-05-06T20:31:10.238Z,10.82
2023-05-06T20:34:11.616Z,11.13
2023-05-06T20:37:13.589Z,10.70
2023-05-06T20:40:15.561Z,10.90
2023-05-06T20:43:16.991Z,11.25
2023-05-06T20:46:19.875Z,10.30
2023-05-06T20:49:21.407Z,10.95
2023-05-06T20:52:22.710Z,11.30
2023-05-06T20:55:25.172Z,10.23
2023-05-06T20:58:28.676Z,10.65
2023-05-06T21:01:30.112Z,9.85
2023-05-06T21:04:31.570Z,11.25
2023-05-06T21:07:32.856Z,10.57
2023-05-06T21:10:34.944Z,10.50
2023-05-06T21:13:36.319Z,10.23
2023-05-06T21:16:39.390Z,11.40
2023-05-06T21:19:40.824Z,11.65
2023-05-06T21:22:42.142Z,11.90
2023-05-06T21:25:44.382Z,11.10
2023-05-06T21:28:50.501Z,11.23
2023-05-06T21:31:52.085Z,10.38
2023-05-06T21:34:53.345Z,10.20
2023-05-06T21:37:54.977Z,10.23
2023-05-06T21:40:57.078Z,10.80
2023-05-06T21:43:58.293Z,10.50
2023-05-06T21:46:59.669Z,10.88
2023-05-06T21:50:00.933Z,11.43
2023-05-06T21:53:03.007Z,10.30
2023-05-06T21:56:05.316Z,11.70
2023-05-06T21:59:07.292Z,9.80
2023-05-06T22:02:08.735Z,10.43
2023-05-06T22:05:10.560Z,11.52
2023-05-06T22:08:12.072Z,10.50
2023-05-06T22:11:14.068Z,10.77
2023-05-06T22:14:16.133Z,10.30
2023-05-06T22:17:18.331Z,9.20
2023-05-06T22:20:20.747Z,9.60
2023-05-06T22:23:23.176Z,11.13
2023-05-06T22:26:27.323Z,10.00
2023-05-06T22:29:28.680Z,9.10
2023-05-06T22:32:30.301Z,11.32
2023-05-06T22:35:31.834Z,10.13
2023-05-06T22:38:33.199Z,10.33
2023-05-06T22:41:35.310Z,10.37
2023-05-06T22:44:36.578Z,8.93
2023-05-06T22:47:38.007Z,9.80
2023-05-06T22:50:39.343Z,9.27
2023-05-06T22:53:40.947Z,9.17
2023-05-06T22:56:43.036Z,9.40
2023-05-06T22:59:44.314Z,8.93
2023-05-06T23:02:45.823Z,9.50
2023-05-06T23:05:47.304Z,8.25
2023-05-06T23:08:48.671Z,9.33
2023-05-06T23:11:50.618Z,8.43
2023-05-06T23:14:52.023Z,9.30
2023-05-06T23:17:53.496Z,10.23
2023-05-06T23:20:54.916Z,9.20
2023-05-06T23:23:56.299Z,10.07
2023-05-06T23:26:58.216Z,9.30
2023-05-06T23:29:59.644Z,9.10
2023-05-06T23:33:00.954Z,10.60
2023-05-06T23:39:23.588Z,9.90
2023-05-06T23:42:25.864Z,9.03
2023-05-06T23:45:27.468Z,9.02
2023-05-06T23:48:28.781Z,10.25
2023-05-06T23:51:31.301Z,10.15
2023-05-06T23:54:32.678Z,9.37
2023-05-06T23:57:34.728Z,10.23
